sensor_id;sensor_type;location;lat;lon;timestamp;temperature;humidity
15298;DHT22;7750;48.796;9.026;2023-04-24T00:04:15;14.60;69.80
15298;DHT22;7750;48.796;9.026;2023-04-24T00:09:16;14.70;69.70
15298;DHT22;7750;48.796;9.026;2023-04-24T00:14:17;14.70;69.50
15298;DHT22;7750;48.796;9.026;2023-04-24T00:19:18;14.70;69.30
15298;DHT22;7750;48.796;9.026;2023-04-24T00:24:30;14.70;69.50
15298;DHT22;7750;48.796;9.026;2023-04-24T00:30:03;14.80;69.60
15298;DHT22;7750;48.796;9.026;2023-04-24T00:35:13;14.80;69.50
15298;DHT22;7750;48.796;9.026;2023-04-24T00:40:27;14.80;69.30
15298;DHT22;7750;48.796;9.026;2023-04-24T00:45:55;14.80;69.20
15298;DHT22;7750;48.796;9.026;2023-04-24T00:51:09;14.90;69.60
15298;DHT22;7750;48.796;9.026;2023-04-24T00:56:13;14.80;69.00
15298;DHT22;7750;48.796;9.026;2023-04-24T01:01:14;14.80;69.20
15298;DHT22;7750;48.796;9.026;2023-04-24T01:06:21;14.90;69.10
15298;DHT22;7750;48.796;9.026;2023-04-24T01:11:47;14.90;69.20
15298;DHT22;7750;48.796;9.026;2023-04-24T01:16:48;14.90;69.40
15298;DHT22;7750;48.796;9.026;2023-04-24T01:21:51;14.90;69.10
15298;DHT22;7750;48.796;9.026;2023-04-24T01:26:53;14.90;69.30
15298;DHT22;7750;48.796;9.026;2023-04-24T01:31:55;14.90;69.30
15298;DHT22;7750;48.796;9.026;2023-04-24T01:36:58;14.90;69.30
15298;DHT22;7750;48.796;9.026;2023-04-24T01:42:40;14.90;69.40
15298;DHT22;7750;48.796;9.026;2023-04-24T01:52:52;14.80;69.70
15298;DHT22;7750;48.796;9.026;2023-04-24T01:58:16;14.80;69.80
15298;DHT22;7750;48.796;9.026;2023-04-24T02:03:30;14.70;70.20
15298;DHT22;7750;48.796;9.026;2023-04-24T02:08:53;14.70;69.80
15298;DHT22;7750;48.796;9.026;2023-04-24T02:14:03;14.70;70.60
15298;DHT22;7750;48.796;9.026;2023-04-24T02:19:06;14.70;70.50
15298;DHT22;7750;48.796;9.026;2023-04-24T02:24:10;14.70;70.70
15298;DHT22;7750;48.796;9.026;2023-04-24T02:29:10;14.70;71.40
15298;DHT22;7750;48.796;9.026;2023-04-24T02:34:49;14.70;71.20
15298;DHT22;7750;48.796;9.026;2023-04-24T02:40:02;14.70;72.50
15298;DHT22;7750;48.796;9.026;2023-04-24T02:46:43;14.60;72.70
15298;DHT22;7750;48.796;9.026;2023-04-24T02:51:33;14.60;74.00
15298;DHT22;7750;48.796;9.026;2023-04-24T02:56:41;14.50;72.90
15298;DHT22;7750;48.796;9.026;2023-04-24T03:02:02;14.50;73.20
15298;DHT22;7750;48.796;9.026;2023-04-24T03:07:03;14.50;73.20
15298;DHT22;7750;48.796;9.026;2023-04-24T03:12:04;14.40;73.40
15298;DHT22;7750;48.796;9.026;2023-04-24T03:17:05;14.40;73.60
15298;DHT22;7750;48.796;9.026;2023-04-24T03:22:06;14.40;73.60
15298;DHT22;7750;48.796;9.026;2023-04-24T03:27:07;14.30;73.80
15298;DHT22;7750;48.796;9.026;2023-04-24T03:32:07;14.30;74.20
15298;DHT22;7750;48.796;9.026;2023-04-24T03:37:08;14.30;73.80
15298;DHT22;7750;48.796;9.026;2023-04-24T03:42:12;14.20;73.70
15298;DHT22;7750;48.796;9.026;2023-04-24T03:47:12;14.20;74.20
15298;DHT22;7750;48.796;9.026;2023-04-24T03:52:13;14.20;74.10
15298;DHT22;7750;48.796;9.026;2023-04-24T03:57:13;14.10;74.40
15298;DHT22;7750;48.796;9.026;2023-04-24T04:02:14;14.10;74.70
15298;DHT22;7750;48.796;9.026;2023-04-24T04:07:15;14.10;74.70
15298;DHT22;7750;48.796;9.026;2023-04-24T04:12:15;14.00;75.10
15298;DHT22;7750;48.796;9.026;2023-04-24T04:17:25;14.00;75.80
15298;DHT22;7750;48.796;9.026;2023-04-24T04:22:26;14.00;76.40
15298;DHT22;7750;48.796;9.026;2023-04-24T04:27:27;13.90;73.40
15298;DHT22;7750;48.796;9.026;2023-04-24T04:32:33;13.80;73.10
15298;DHT22;7750;48.796;9.026;2023-04-24T04:37:34;13.70;73.80
15298;DHT22;7750;48.796;9.026;2023-04-24T04:42:35;13.60;73.70
15298;DHT22;7750;48.796;9.026;2023-04-24T04:47:40;13.50;73.60
15298;DHT22;7750;48.796;9.026;2023-04-24T04:52:41;13.40;73.50
15298;DHT22;7750;48.796;9.026;2023-04-24T04:57:41;13.30;73.80
15298;DHT22;7750;48.796;9.026;2023-04-24T05:02:42;13.30;73.90
15298;DHT22;7750;48.796;9.026;2023-04-24T05:07:43;13.20;73.90
15298;DHT22;7750;48.796;9.026;2023-04-24T05:12:44;13.20;73.90
15298;DHT22;7750;48.796;9.026;2023-04-24T05:17:45;13.20;74.20
15298;DHT22;7750;48.796;9.026;2023-04-24T05:22:46;13.10;74.20
15298;DHT22;7750;48.796;9.026;2023-04-24T05:27:47;13.10;74.40
15298;DHT22;7750;48.796;9.026;2023-04-24T05:32:50;13.20;74.40
15298;DHT22;7750;48.796;9.026;2023-04-24T05:37:51;13.10;74.50
15298;DHT22;7750;48.796;9.026;2023-04-24T05:42:52;13.10;74.20
15298;DHT22;7750;48.796;9.026;2023-04-24T05:47:52;13.10;74.10
15298;DHT22;7750;48.796;9.026;2023-04-24T05:52:53;13.10;74.60
15298;DHT22;7750;48.796;9.026;2023-04-24T05:57:53;13.10;74.40
15298;DHT22;7750;48.796;9.026;2023-04-24T06:02:54;13.10;74.10
15298;DHT22;7750;48.796;9.026;2023-04-24T06:07:55;13.10;73.60
15298;DHT22;7750;48.796;9.026;2023-04-24T06:12:56;13.10;73.70
15298;DHT22;7750;48.796;9.026;2023-04-24T06:18:00;13.20;73.90
15298;DHT22;7750;48.796;9.026;2023-04-24T06:23:01;13.30;73.70
15298;DHT22;7750;48.796;9.026;2023-04-24T06:28:02;13.40;73.40
15298;DHT22;7750;48.796;9.026;2023-04-24T06:33:03;13.50;73.50
15298;DHT22;7750;48.796;9.026;2023-04-24T06:38:04;13.70;73.90
15298;DHT22;7750;48.796;9.026;2023-04-24T06:43:04;13.90;74.20
15298;DHT22;7750;48.796;9.026;2023-04-24T06:48:06;14.10;73.80
15298;DHT22;7750;48.796;9.026;2023-04-24T06:53:07;14.40;71.80
15298;DHT22;7750;48.796;9.026;2023-04-24T06:58:10;14.60;72.30
15298;DHT22;7750;48.796;9.026;2023-04-24T07:03:11;14.90;71.80
15298;DHT22;7750;48.796;9.026;2023-04-24T07:08:15;15.10;69.20
15298;DHT22;7750;48.796;9.026;2023-04-24T07:13:17;15.10;67.20
15298;DHT22;7750;48.796;9.026;2023-04-24T07:18:18;15.00;66.80
15298;DHT22;7750;48.796;9.026;2023-04-24T07:23:19;14.90;66.80
15298;DHT22;7750;48.796;9.026;2023-04-24T07:28:23;14.90;65.50
15298;DHT22;7750;48.796;9.026;2023-04-24T07:33:25;14.80;64.40
15298;DHT22;7750;48.796;9.026;2023-04-24T07:38:29;14.70;64.20
15298;DHT22;7750;48.796;9.026;2023-04-24T07:43:30;14.80;64.50
15298;DHT22;7750;48.796;9.026;2023-04-24T07:48:30;15.00;61.50
15298;DHT22;7750;48.796;9.026;2023-04-24T07:53:31;15.10;61.50
15298;DHT22;7750;48.796;9.026;2023-04-24T07:58:32;15.20;59.30
15298;DHT22;7750;48.796;9.026;2023-04-24T08:03:33;15.20;60.00
15298;DHT22;7750;48.796;9.026;2023-04-24T08:08:33;15.20;59.50
15298;DHT22;7750;48.796;9.026;2023-04-24T08:13:34;15.40;59.00
15298;DHT22;7750;48.796;9.026;2023-04-24T08:18:35;15.50;58.40
15298;DHT22;7750;48.796;9.026;2023-04-24T08:23:36;15.50;58.40
15298;DHT22;7750;48.796;9.026;2023-04-24T08:28:40;15.60;58.20
15298;DHT22;7750;48.796;9.026;2023-04-24T08:33:40;15.60;57.80
15298;DHT22;7750;48.796;9.026;2023-04-24T08:38:42;15.50;57.30
15298;DHT22;7750;48.796;9.026;2023-04-24T08:43:43;15.30;58.00
15298;DHT22;7750;48.796;9.026;2023-04-24T08:48:46;15.10;59.30
15298;DHT22;7750;48.796;9.026;2023-04-24T08:53:48;14.90;59.90
15298;DHT22;7750;48.796;9.026;2023-04-24T08:58:51;14.80;60.20
15298;DHT22;7750;48.796;9.026;2023-04-24T09:03:53;14.80;59.80
15298;DHT22;7750;48.796;9.026;2023-04-24T09:09:03;14.70;59.70
15298;DHT22;7750;48.796;9.026;2023-04-24T09:19:17;14.30;60.90
15298;DHT22;7750;48.796;9.026;2023-04-24T09:24:21;14.10;61.30
15298;DHT22;7750;48.796;9.026;2023-04-24T09:29:25;14.00;61.50
15298;DHT22;7750;48.796;9.026;2023-04-24T09:34:29;14.00;61.30
15298;DHT22;7750;48.796;9.026;2023-04-24T09:39:29;14.00;61.30
15298;DHT22;7750;48.796;9.026;2023-04-24T09:44:34;14.00;61.40
15298;DHT22;7750;48.796;9.026;2023-04-24T09:49:35;14.10;61.30
15298;DHT22;7750;48.796;9.026;2023-04-24T09:54:39;14.20;60.10
15298;DHT22;7750;48.796;9.026;2023-04-24T09:59:45;14.20;60.70
15298;DHT22;7750;48.796;9.026;2023-04-24T10:04:56;14.30;59.30
15298;DHT22;7750;48.796;9.026;2023-04-24T10:09:59;14.50;58.80
15298;DHT22;7750;48.796;9.026;2023-04-24T10:15:10;14.70;57.80
15298;DHT22;7750;48.796;9.026;2023-04-24T10:20:12;14.90;57.50
15298;DHT22;7750;48.796;9.026;2023-04-24T10:25:20;15.10;57.40
15298;DHT22;7750;48.796;9.026;2023-04-24T10:30:22;15.30;55.30
15298;DHT22;7750;48.796;9.026;2023-04-24T10:35:23;15.30;55.60
15298;DHT22;7750;48.796;9.026;2023-04-24T10:40:30;15.30;55.60
15298;DHT22;7750;48.796;9.026;2023-04-24T10:45:32;15.20;55.30
15298;DHT22;7750;48.796;9.026;2023-04-24T10:50:51;15.20;55.30
15298;DHT22;7750;48.796;9.026;2023-04-24T10:55:58;15.20;55.40
15298;DHT22;7750;48.796;9.026;2023-04-24T11:00:59;15.20;55.90
15298;DHT22;7750;48.796;9.026;2023-04-24T11:06:05;15.10;56.80
15298;DHT22;7750;48.796;9.026;2023-04-24T11:11:15;15.10;55.90
15298;DHT22;7750;48.796;9.026;2023-04-24T11:16:35;14.90;55.40
15298;DHT22;7750;48.796;9.026;2023-04-24T11:21:47;14.90;55.80
15298;DHT22;7750;48.796;9.026;2023-04-24T11:26:50;14.90;56.00
15298;DHT22;7750;48.796;9.026;2023-04-24T11:31:51;15.00;56.20
15298;DHT22;7750;48.796;9.026;2023-04-24T11:36:52;15.10;55.90
15298;DHT22;7750;48.796;9.026;2023-04-24T11:41:52;15.10;56.60
15298;DHT22;7750;48.796;9.026;2023-04-24T11:46:55;15.00;57.20
15298;DHT22;7750;48.796;9.026;2023-04-24T11:51:57;15.10;57.80
15298;DHT22;7750;48.796;9.026;2023-04-24T11:56:57;15.10;57.20
15298;DHT22;7750;48.796;9.026;2023-04-24T12:01:58;15.20;57.60
15298;DHT22;7750;48.796;9.026;2023-04-24T12:07:02;15.30;56.40
15298;DHT22;7750;48.796;9.026;2023-04-24T12:12:06;15.30;56.00
15298;DHT22;7750;48.796;9.026;2023-04-24T12:17:07;15.20;55.70
15298;DHT22;7750;48.796;9.026;2023-04-24T12:22:07;15.10;55.80
15298;DHT22;7750;48.796;9.026;2023-04-24T12:27:19;15.00;55.80
15298;DHT22;7750;48.796;9.026;2023-04-24T12:32:20;15.00;55.80
15298;DHT22;7750;48.796;9.026;2023-04-24T12:37:24;15.10;56.40
15298;DHT22;7750;48.796;9.026;2023-04-24T12:42:27;15.10;56.00
15298;DHT22;7750;48.796;9.026;2023-04-24T12:47:29;15.10;55.90
15298;DHT22;7750;48.796;9.026;2023-04-24T12:52:30;15.10;56.30
15298;DHT22;7750;48.796;9.026;2023-04-24T12:57:31;15.00;60.00
15298;DHT22;7750;48.796;9.026;2023-04-24T13:02:32;14.90;60.50
15298;DHT22;7750;48.796;9.026;2023-04-24T13:07:33;14.80;61.90
15298;DHT22;7750;48.796;9.026;2023-04-24T13:12:35;14.80;61.40
15298;DHT22;7750;48.796;9.026;2023-04-24T13:17:35;14.90;61.20
15298;DHT22;7750;48.796;9.026;2023-04-24T13:22:36;15.00;60.50
15298;DHT22;7750;48.796;9.026;2023-04-24T13:27:40;15.10;58.90
15298;DHT22;7750;48.796;9.026;2023-04-24T13:32:41;15.20;58.40
15298;DHT22;7750;48.796;9.026;2023-04-24T13:37:42;15.30;58.70
15298;DHT22;7750;48.796;9.026;2023-04-24T13:42:43;15.30;59.80
15298;DHT22;7750;48.796;9.026;2023-04-24T13:47:43;15.20;60.90
15298;DHT22;7750;48.796;9.026;2023-04-24T13:52:44;15.00;62.00
15298;DHT22;7750;48.796;9.026;2023-04-24T13:57:45;14.80;61.10
15298;DHT22;7750;48.796;9.026;2023-04-24T14:02:45;14.70;62.10
15298;DHT22;7750;48.796;9.026;2023-04-24T14:07:50;14.70;61.30
15298;DHT22;7750;48.796;9.026;2023-04-24T14:12:51;14.80;61.10
15298;DHT22;7750;48.796;9.026;2023-04-24T14:17:54;14.80;60.30
15298;DHT22;7750;48.796;9.026;2023-04-24T14:22:55;14.90;60.80
15298;DHT22;7750;48.796;9.026;2023-04-24T14:27:58;15.00;59.90
15298;DHT22;7750;48.796;9.026;2023-04-24T14:32:59;15.10;59.50
15298;DHT22;7750;48.796;9.026;2023-04-24T14:38:03;15.00;59.20
15298;DHT22;7750;48.796;9.026;2023-04-24T14:43:03;15.00;59.20
15298;DHT22;7750;48.796;9.026;2023-04-24T14:48:04;15.00;59.40
15298;DHT22;7750;48.796;9.026;2023-04-24T14:53:08;15.00;59.70
15298;DHT22;7750;48.796;9.026;2023-04-24T14:58:19;15.00;59.70
15298;DHT22;7750;48.796;9.026;2023-04-24T15:03:20;15.10;59.70
15298;DHT22;7750;48.796;9.026;2023-04-24T15:08:22;15.20;59.50
15298;DHT22;7750;48.796;9.026;2023-04-24T15:13:22;15.10;58.90
15298;DHT22;7750;48.796;9.026;2023-04-24T15:18:23;15.10;59.00
15298;DHT22;7750;48.796;9.026;2023-04-24T15:23:23;15.00;59.20
15298;DHT22;7750;48.796;9.026;2023-04-24T15:28:25;14.90;61.40
15298;DHT22;7750;48.796;9.026;2023-04-24T15:33:25;14.80;60.90
15298;DHT22;7750;48.796;9.026;2023-04-24T15:38:26;14.70;63.10
15298;DHT22;7750;48.796;9.026;2023-04-24T15:43:27;14.60;63.00
15298;DHT22;7750;48.796;9.026;2023-04-24T15:48:31;14.50;63.70
15298;DHT22;7750;48.796;9.026;2023-04-24T15:53:32;14.50;63.90
15298;DHT22;7750;48.796;9.026;2023-04-24T15:58:32;14.60;64.50
15298;DHT22;7750;48.796;9.026;2023-04-24T16:03:33;14.70;63.50
15298;DHT22;7750;48.796;9.026;2023-04-24T16:08:34;14.70;63.00
15298;DHT22;7750;48.796;9.026;2023-04-24T16:13:34;14.80;62.30
15298;DHT22;7750;48.796;9.026;2023-04-24T16:18:35;14.90;61.80
15298;DHT22;7750;48.796;9.026;2023-04-24T16:23:36;14.90;61.50
15298;DHT22;7750;48.796;9.026;2023-04-24T16:28:37;14.90;60.30
15298;DHT22;7750;48.796;9.026;2023-04-24T16:33:38;14.80;60.00
15298;DHT22;7750;48.796;9.026;2023-04-24T16:38:39;14.80;60.10
15298;DHT22;7750;48.796;9.026;2023-04-24T16:43:39;14.80;60.00
15298;DHT22;7750;48.796;9.026;2023-04-24T16:48:40;14.90;59.70
15298;DHT22;7750;48.796;9.026;2023-04-24T16:53:41;15.00;58.50
15298;DHT22;7750;48.796;9.026;2023-04-24T16:58:41;15.10;58.30
15298;DHT22;7750;48.796;9.026;2023-04-24T17:03:42;15.10;57.90
15298;DHT22;7750;48.796;9.026;2023-04-24T17:08:43;15.20;57.80
15298;DHT22;7750;48.796;9.026;2023-04-24T17:13:43;15.30;57.60
15298;DHT22;7750;48.796;9.026;2023-04-24T17:18:44;15.40;57.30
15298;DHT22;7750;48.796;9.026;2023-04-24T17:23:45;15.40;56.60
15298;DHT22;7750;48.796;9.026;2023-04-24T17:28:45;15.30;57.20
15298;DHT22;7750;48.796;9.026;2023-04-24T17:33:46;15.30;56.70
15298;DHT22;7750;48.796;9.026;2023-04-24T17:38:47;15.20;57.00
15298;DHT22;7750;48.796;9.026;2023-04-24T17:43:47;15.10;56.80
15298;DHT22;7750;48.796;9.026;2023-04-24T17:48:48;15.10;57.20
15298;DHT22;7750;48.796;9.026;2023-04-24T17:53:49;15.00;57.00
15298;DHT22;7750;48.796;9.026;2023-04-24T17:58:51;14.90;57.50
15298;DHT22;7750;48.796;9.026;2023-04-24T18:03:52;14.90;57.30
15298;DHT22;7750;48.796;9.026;2023-04-24T18:08:52;14.80;58.00
15298;DHT22;7750;48.796;9.026;2023-04-24T18:13:53;14.80;57.90
15298;DHT22;7750;48.796;9.026;2023-04-24T18:18:54;14.70;57.90
15298;DHT22;7750;48.796;9.026;2023-04-24T18:23:54;14.70;58.20
15298;DHT22;7750;48.796;9.026;2023-04-24T18:28:59;14.60;58.20
15298;DHT22;7750;48.796;9.026;2023-04-24T18:34:00;14.60;58.30
15298;DHT22;7750;48.796;9.026;2023-04-24T18:39:00;14.50;58.40
15298;DHT22;7750;48.796;9.026;2023-04-24T18:44:01;14.50;58.60
15298;DHT22;7750;48.796;9.026;2023-04-24T18:49:02;14.40;58.70
15298;DHT22;7750;48.796;9.026;2023-04-24T18:54:03;14.40;58.80
15298;DHT22;7750;48.796;9.026;2023-04-24T18:59:04;14.30;58.90
15298;DHT22;7750;48.796;9.026;2023-04-24T19:04:05;14.30;59.10
15298;DHT22;7750;48.796;9.026;2023-04-24T19:09:06;14.20;59.30
15298;DHT22;7750;48.796;9.026;2023-04-24T19:14:06;14.60;59.40
15298;DHT22;7750;48.796;9.026;2023-04-24T19:19:07;14.40;59.30
15298;DHT22;7750;48.796;9.026;2023-04-24T19:24:08;14.30;59.30
15298;DHT22;7750;48.796;9.026;2023-04-24T19:29:11;14.10;59.50
15298;DHT22;7750;48.796;9.026;2023-04-24T19:34:12;14.00;59.80
15298;DHT22;7750;48.796;9.026;2023-04-24T19:39:13;13.90;60.10
15298;DHT22;7750;48.796;9.026;2023-04-24T19:44:13;13.80;60.10
15298;DHT22;7750;48.796;9.026;2023-04-24T19:49:16;13.70;60.40
15298;DHT22;7750;48.796;9.026;2023-04-24T19:54:17;13.70;60.50
15298;DHT22;7750;48.796;9.026;2023-04-24T19:59:19;13.70;60.90
15298;DHT22;7750;48.796;9.026;2023-04-24T20:04:20;13.60;60.80
15298;DHT22;7750;48.796;9.026;2023-04-24T20:09:22;13.60;60.90
15298;DHT22;7750;48.796;9.026;2023-04-24T20:14:23;13.60;61.20
15298;DHT22;7750;48.796;9.026;2023-04-24T20:19:23;13.60;61.00
15298;DHT22;7750;48.796;9.026;2023-04-24T20:24:24;13.50;61.20
15298;DHT22;7750;48.796;9.026;2023-04-24T20:29:25;13.40;61.60
15298;DHT22;7750;48.796;9.026;2023-04-24T20:34:25;13.30;61.70
15298;DHT22;7750;48.796;9.026;2023-04-24T20:39:26;13.30;61.90
15298;DHT22;7750;48.796;9.026;2023-04-24T20:44:26;13.20;62.20
15298;DHT22;7750;48.796;9.026;2023-04-24T20:49:27;13.10;62.10
15298;DHT22;7750;48.796;9.026;2023-04-24T20:54:28;13.00;62.50
15298;DHT22;7750;48.796;9.026;2023-04-24T20:59:28;13.00;62.90
15298;DHT22;7750;48.796;9.026;2023-04-24T21:04:29;12.90;62.80
15298;DHT22;7750;48.796;9.026;2023-04-24T21:19:55;12.70;62.80
15298;DHT22;7750;48.796;9.026;2023-04-24T21:42:54;12.60;62.90
15298;DHT22;7750;48.796;9.026;2023-04-24T21:54:17;12.50;62.50
15298;DHT22;7750;48.796;9.026;2023-04-24T21:59:56;12.40;62.60
15298;DHT22;7750;48.796;9.026;2023-04-24T22:05:24;12.50;63.00
15298;DHT22;7750;48.796;9.026;2023-04-24T22:27:35;12.30;63.40
15298;DHT22;7750;48.796;9.026;2023-04-24T23:02:38;12.30;64.40
15298;DHT22;7750;48.796;9.026;2023-04-24T23:24:21;12.20;65.10
15298;DHT22;7750;48.796;9.026;2023-04-24T23:34:32;12.10;65.40
15298;DHT22;7750;48.796;9.026;2023-04-24T23:45:30;12.10;65.90
15298;DHT22;7750;48.796;9.026;2023-04-24T23:50:31;12.10;65.30
15298;DHT22;7750;48.796;9.026;2023-04-24T23:55:32;12.10;65.30
